createdAt,value
2018-12-07T00:01:14.308Z,14.57
2018-12-07T00:03:42.473Z,14.59
2018-12-07T00:06:10.872Z,14.61
2018-12-07T00:08:39.021Z,14.61
2018-12-07T00:11:07.215Z,14.63
2018-12-07T00:13:35.477Z,14.62
2018-12-07T00:16:03.764Z,14.63
2018-12-07T00:18:31.916Z,14.64
2018-12-07T00:21:00.145Z,14.68
2018-12-07T00:23:28.297Z,14.66
2018-12-07T00:25:56.557Z,14.67
2018-12-07T00:28:24.861Z,14.67
2018-12-07T00:30:53.010Z,14.68
2018-12-07T00:33:21.197Z,14.67
2018-12-07T00:35:49.356Z,14.66
2018-12-07T00:38:17.517Z,14.66
2018-12-07T00:40:45.820Z,14.67
2018-12-07T00:43:13.981Z,14.68
2018-12-07T00:45:42.120Z,14.68
2018-12-07T00:48:10.349Z,14.67
2018-12-07T00:50:38.629Z,14.69
2018-12-07T00:53:06.804Z,14.68
2018-12-07T00:55:38.097Z,14.69
2018-12-07T00:58:06.545Z,14.70
2018-12-07T01:00:34.702Z,14.70
2018-12-07T01:03:02.986Z,14.70
2018-12-07T01:05:31.253Z,14.71
2018-12-07T01:07:59.448Z,14.71
2018-12-07T01:10:27.595Z,14.71
2018-12-07T01:12:55.784Z,14.71
2018-12-07T01:15:24.057Z,14.71
2018-12-07T01:17:52.281Z,14.72
2018-12-07T01:20:20.508Z,14.74
2018-12-07T01:22:48.652Z,14.74
2018-12-07T01:25:16.893Z,14.73
2018-12-07T01:27:45.040Z,14.74
2018-12-07T01:30:13.370Z,14.72
2018-12-07T01:32:41.593Z,14.73
2018-12-07T01:35:09.977Z,14.74
2018-12-07T01:37:38.253Z,14.74
2018-12-07T01:40:06.842Z,14.73
2018-12-07T01:42:35.212Z,14.74
2018-12-07T01:45:03.601Z,14.74
2018-12-07T01:47:33.733Z,14.73
2018-12-07T01:50:02.100Z,14.76
2018-12-07T01:52:30.361Z,14.74
2018-12-07T01:54:58.744Z,14.75
2018-12-07T01:57:26.909Z,14.75
2018-12-07T01:59:55.068Z,14.75
2018-12-07T02:02:23.265Z,14.75
2018-12-07T02:04:51.424Z,14.75
2018-12-07T02:07:31.497Z,14.75
2018-12-07T02:09:59.912Z,14.75
2018-12-07T02:12:28.676Z,14.74
2018-12-07T02:14:56.833Z,14.75
2018-12-07T02:17:24.980Z,14.74
2018-12-07T02:19:53.399Z,14.76
2018-12-07T02:22:21.565Z,14.76
2018-12-07T02:24:49.853Z,14.76
2018-12-07T02:27:18.232Z,14.77
2018-12-07T02:29:46.429Z,14.79
2018-12-07T02:32:14.577Z,14.79
2018-12-07T02:34:42.750Z,14.80
2018-12-07T02:37:10.928Z,14.81
2018-12-07T02:39:39.216Z,14.82
2018-12-07T02:42:07.601Z,14.82
2018-12-07T02:44:35.765Z,14.81
2018-12-07T02:47:04.194Z,14.81
2018-12-07T02:49:32.406Z,14.80
2018-12-07T02:52:00.596Z,14.79
2018-12-07T02:54:28.855Z,14.78
2018-12-07T02:56:57.169Z,14.77
2018-12-07T02:59:25.320Z,14.76
2018-12-07T03:01:53.472Z,14.74
2018-12-07T03:04:21.656Z,14.74
2018-12-07T03:06:49.973Z,14.74
2018-12-07T03:09:18.293Z,14.73
2018-12-07T03:11:46.445Z,14.74
2018-12-07T03:14:14.673Z,14.74
2018-12-07T03:16:42.853Z,14.75
2018-12-07T03:19:11.120Z,14.76
2018-12-07T03:21:39.309Z,14.74
2018-12-07T03:24:07.581Z,14.74
2018-12-07T03:26:35.757Z,14.75
2018-12-07T03:29:04.140Z,14.76
2018-12-07T03:31:32.313Z,14.75
2018-12-07T03:34:02.348Z,14.77
2018-12-07T03:36:30.724Z,14.76
2018-12-07T03:38:58.865Z,14.74
2018-12-07T03:41:27.168Z,14.75
2018-12-07T03:43:55.321Z,14.74
2018-12-07T03:46:23.465Z,14.76
2018-12-07T03:48:51.675Z,14.77
2018-12-07T03:51:19.990Z,14.77
2018-12-07T03:53:48.144Z,14.78
2018-12-07T03:56:16.420Z,14.78
2018-12-07T03:58:44.588Z,14.79
2018-12-07T04:01:12.979Z,14.79
2018-12-07T04:03:41.828Z,14.80
2018-12-07T04:06:10.454Z,14.81
2018-12-07T04:08:38.625Z,14.80
2018-12-07T04:11:06.893Z,14.80
2018-12-07T04:13:35.180Z,14.80
2018-12-07T04:16:03.661Z,14.79
2018-12-07T04:18:31.832Z,14.78
2018-12-07T04:21:00.120Z,14.79
2018-12-07T04:23:28.529Z,14.76
2018-12-07T04:25:56.754Z,14.76
2018-12-07T04:28:24.949Z,14.74
2018-12-07T04:30:53.095Z,14.74
2018-12-07T04:33:21.254Z,14.75
2018-12-07T04:35:49.461Z,14.74
2018-12-07T04:38:17.682Z,14.73
2018-12-07T04:40:45.823Z,14.74
2018-12-07T04:43:13.981Z,14.75
2018-12-07T04:45:42.158Z,14.76
2018-12-07T04:48:10.349Z,14.77
2018-12-07T04:50:38.733Z,14.79
2018-12-07T04:53:07.008Z,14.78
2018-12-07T04:55:35.477Z,14.77
2018-12-07T04:58:03.865Z,14.78
2018-12-07T05:00:32.165Z,14.77
2018-12-07T05:03:00.402Z,14.78
2018-12-07T05:05:28.812Z,14.78
2018-12-07T05:07:56.957Z,14.78
2018-12-07T05:10:25.162Z,14.78
2018-12-07T05:12:53.314Z,14.78
2018-12-07T05:15:21.709Z,14.76
2018-12-07T05:17:49.865Z,14.76
2018-12-07T05:20:18.056Z,14.75
2018-12-07T05:22:46.216Z,14.74
2018-12-07T05:25:14.406Z,14.75
2018-12-07T05:27:42.597Z,14.74
2018-12-07T05:30:10.969Z,14.73
2018-12-07T05:32:39.109Z,14.73
2018-12-07T05:35:07.444Z,14.74
2018-12-07T05:37:35.585Z,14.72
2018-12-07T05:40:04.078Z,14.71
2018-12-07T05:42:32.229Z,14.73
2018-12-07T05:45:00.382Z,14.73
2018-12-07T05:47:28.697Z,14.75
2018-12-07T05:49:56.864Z,14.74
2018-12-07T05:52:25.128Z,14.73
2018-12-07T05:54:53.334Z,14.71
2018-12-07T05:57:21.598Z,14.71
2018-12-07T05:59:49.845Z,14.71
2018-12-07T06:02:18.121Z,14.71
2018-12-07T06:04:46.354Z,14.70
2018-12-07T06:07:14.556Z,14.71
2018-12-07T06:09:42.701Z,14.71
2018-12-07T06:12:10.909Z,14.71
2018-12-07T06:14:39.297Z,14.70
2018-12-07T06:17:07.529Z,14.69
2018-12-07T06:19:35.752Z,14.70
2018-12-07T06:22:04.136Z,14.70
2018-12-07T06:24:32.307Z,14.68
2018-12-07T06:27:00.549Z,14.69
2018-12-07T06:29:28.734Z,14.68
2018-12-07T06:31:56.964Z,14.67
2018-12-07T06:34:25.112Z,14.67
2018-12-07T06:36:53.368Z,14.67
2018-12-07T06:39:21.599Z,14.66
2018-12-07T06:41:49.937Z,14.66
2018-12-07T06:44:18.077Z,14.65
2018-12-07T06:46:46.302Z,14.64
2018-12-07T06:49:14.791Z,14.62
2018-12-07T06:51:44.056Z,14.60
2018-12-07T06:54:12.296Z,14.60
2018-12-07T06:56:40.641Z,14.53
2018-12-07T06:59:08.906Z,14.58
2018-12-07T07:01:37.301Z,14.58
2018-12-07T07:04:05.448Z,14.57
2018-12-07T07:06:33.593Z,14.57
2018-12-07T07:09:01.748Z,14.56
2018-12-07T07:11:29.905Z,14.56
2018-12-07T07:13:58.057Z,14.56
2018-12-07T07:16:26.212Z,14.54
2018-12-07T07:18:54.661Z,14.54
2018-12-07T07:21:22.878Z,14.54
2018-12-07T07:23:51.128Z,14.56
2018-12-07T07:26:19.395Z,14.56
2018-12-07T07:28:47.724Z,14.56
2018-12-07T07:31:15.895Z,14.54
2018-12-07T07:33:44.189Z,14.56
2018-12-07T07:36:12.432Z,14.57
2018-12-07T07:38:40.619Z,14.54
2018-12-07T07:41:09.003Z,14.54
2018-12-07T07:43:37.170Z,14.52
2018-12-07T07:46:05.440Z,14.53
2018-12-07T07:48:33.738Z,14.52
2018-12-07T07:51:01.976Z,14.54
2018-12-07T07:53:30.209Z,14.53
2018-12-07T07:55:58.352Z,14.53
2018-12-07T07:58:26.513Z,14.52
2018-12-07T08:00:54.693Z,14.53
2018-12-07T08:03:22.873Z,14.54
2018-12-07T08:05:51.037Z,14.53
2018-12-07T08:08:19.369Z,14.51
2018-12-07T08:10:47.786Z,14.56
2018-12-07T08:13:16.196Z,14.55
2018-12-07T08:15:44.593Z,14.56
2018-12-07T08:18:12.741Z,14.57
2018-12-07T08:20:41.017Z,14.57
2018-12-07T08:23:14.748Z,14.56
2018-12-07T08:25:39.417Z,14.56
2018-12-07T08:28:07.652Z,14.58
2018-12-07T08:30:36.808Z,14.58
2018-12-07T08:33:05.060Z,14.58
2018-12-07T08:35:33.253Z,14.60
2018-12-07T08:38:01.491Z,14.61
2018-12-07T08:40:29.851Z,14.62
2018-12-07T08:42:58.179Z,14.64
2018-12-07T08:45:26.597Z,14.63
2018-12-07T08:47:54.821Z,14.65
2018-12-07T08:50:23.229Z,14.67
2018-12-07T08:52:51.585Z,14.70
2018-12-07T08:55:19.768Z,14.71
2018-12-07T08:57:47.918Z,14.73
2018-12-07T09:00:16.341Z,14.72
2018-12-07T09:02:44.573Z,14.72
2018-12-07T09:05:12.833Z,14.70
2018-12-07T09:07:40.980Z,14.71
2018-12-07T09:10:09.300Z,14.71
2018-12-07T09:12:37.453Z,14.72
2018-12-07T09:15:06.124Z,14.74
2018-12-07T09:17:34.444Z,14.77
2018-12-07T09:20:02.665Z,14.83
2018-12-07T09:22:30.987Z,14.80
2018-12-07T09:24:59.129Z,14.82
2018-12-07T09:27:27.289Z,14.88
2018-12-07T09:29:55.493Z,14.85
2018-12-07T09:32:23.651Z,14.86
2018-12-07T09:34:52.908Z,14.84
2018-12-07T09:37:21.149Z,14.84
2018-12-07T09:39:49.377Z,14.85
2018-12-07T09:42:17.609Z,14.84
2018-12-07T09:44:45.750Z,14.86
2018-12-07T09:47:13.906Z,14.86
2018-12-07T09:49:42.056Z,14.87
2018-12-07T09:52:10.207Z,14.87
2018-12-07T09:54:38.346Z,14.83
2018-12-07T09:57:06.529Z,14.84
2018-12-07T09:59:34.679Z,14.82
2018-12-07T10:02:02.917Z,14.81
2018-12-07T10:04:31.272Z,14.86
2018-12-07T10:06:59.818Z,14.91
2018-12-07T10:09:28.081Z,14.84
2018-12-07T10:11:56.245Z,14.84
2018-12-07T10:14:24.388Z,14.87
2018-12-07T10:16:52.521Z,14.89
2018-12-07T10:19:20.797Z,14.88
2018-12-07T10:21:48.954Z,14.88
2018-12-07T10:24:17.174Z,14.88
2018-12-07T10:26:45.421Z,14.91
2018-12-07T10:29:13.572Z,14.92
2018-12-07T10:31:41.769Z,14.92
2018-12-07T10:34:09.973Z,14.97
2018-12-07T10:36:38.116Z,14.94
2018-12-07T10:39:06.950Z,15.00
2018-12-07T10:41:35.101Z,14.98
2018-12-07T10:44:03.461Z,14.99
2018-12-07T10:46:31.604Z,15.02
2018-12-07T10:48:59.842Z,15.04
2018-12-07T10:51:28.073Z,15.08
2018-12-07T10:53:56.224Z,15.07
2018-12-07T10:56:24.529Z,15.07
2018-12-07T10:58:52.716Z,15.10
2018-12-07T11:01:26.217Z,15.09
2018-12-07T11:03:59.717Z,15.09
2018-12-07T11:06:33.174Z,15.07
2018-12-07T11:09:06.421Z,15.05
2018-12-07T11:11:44.733Z,15.08
2018-12-07T11:14:13.369Z,15.07
2018-12-07T11:16:47.017Z,15.08
2018-12-07T11:19:20.368Z,15.10
2018-12-07T11:21:53.805Z,15.11
2018-12-07T11:24:27.752Z,15.12
2018-12-07T11:27:01.193Z,15.13
2018-12-07T11:29:34.825Z,15.13
2018-12-07T11:32:08.245Z,15.13
2018-12-07T11:34:46.331Z,15.15
2018-12-07T11:37:15.249Z,15.16
2018-12-07T11:39:43.489Z,15.18
2018-12-07T11:42:11.716Z,15.23
2018-12-07T11:44:39.875Z,15.23
2018-12-07T11:47:08.012Z,15.21
2018-12-07T11:49:36.248Z,15.17
2018-12-07T11:52:04.473Z,15.15
2018-12-07T11:54:32.624Z,15.14
2018-12-07T11:57:00.849Z,15.13
2018-12-07T11:59:29.004Z,15.14
2018-12-07T12:01:57.146Z,15.14
2018-12-07T12:04:25.312Z,15.14
2018-12-07T12:06:53.452Z,15.14
2018-12-07T12:09:21.677Z,15.15
2018-12-07T12:11:49.898Z,15.17
2018-12-07T12:14:18.128Z,15.17
2018-12-07T12:16:46.277Z,15.17
2018-12-07T12:19:14.414Z,15.15
2018-12-07T12:21:42.569Z,15.14
2018-12-07T12:24:10.704Z,15.18
2018-12-07T12:26:38.922Z,15.14
2018-12-07T12:29:07.188Z,15.11
2018-12-07T12:31:35.345Z,15.09
2018-12-07T12:34:03.525Z,15.10
2018-12-07T12:36:31.677Z,15.05
2018-12-07T12:39:00.019Z,15.06
2018-12-07T12:41:28.281Z,15.03
2018-12-07T12:43:56.437Z,15.03
2018-12-07T12:46:24.609Z,15.02
2018-12-07T12:48:52.925Z,15.02
2018-12-07T12:51:21.082Z,15.04
2018-12-07T12:53:49.221Z,15.02
2018-12-07T12:56:17.393Z,15.01
2018-12-07T12:58:45.809Z,14.98
2018-12-07T13:01:14.009Z,15.02
2018-12-07T13:03:42.245Z,15.03
2018-12-07T13:06:10.533Z,15.01
2018-12-07T13:08:38.761Z,14.99
2018-12-07T13:11:07.029Z,14.99
2018-12-07T13:13:35.184Z,14.99
2018-12-07T13:16:03.346Z,14.95
2018-12-07T13:18:31.625Z,14.87
2018-12-07T13:20:59.900Z,14.86
2018-12-07T13:23:28.149Z,14.85
2018-12-07T13:25:56.448Z,14.82
2018-12-07T13:28:24.724Z,14.84
2018-12-07T13:30:52.929Z,14.80
2018-12-07T13:33:21.169Z,14.80
2018-12-07T13:35:49.444Z,14.78
2018-12-07T13:38:17.621Z,14.72
2018-12-07T13:40:45.998Z,14.75
2018-12-07T13:43:14.410Z,14.74
2018-12-07T13:45:42.801Z,14.74
2018-12-07T13:48:11.218Z,14.75
2018-12-07T13:50:42.340Z,14.81
2018-12-07T13:53:11.726Z,14.91
2018-12-07T13:55:40.349Z,14.92
2018-12-07T13:58:09.014Z,14.94
2018-12-07T14:00:37.224Z,14.96
2018-12-07T14:03:05.938Z,14.92
2018-12-07T14:05:34.449Z,14.89
2018-12-07T14:08:02.820Z,14.90
2018-12-07T14:10:32.453Z,14.92
2018-12-07T14:13:00.856Z,14.94
2018-12-07T14:15:29.187Z,14.96
2018-12-07T14:17:58.280Z,14.96
2018-12-07T14:20:26.700Z,15.01
2018-12-07T14:22:55.594Z,15.03
2018-12-07T14:25:23.960Z,14.99
2018-12-07T14:27:52.421Z,14.98
2018-12-07T14:30:20.812Z,14.93
2018-12-07T14:32:49.251Z,14.93
2018-12-07T14:35:17.983Z,14.87
2018-12-07T14:37:46.318Z,14.81
2018-12-07T14:40:15.220Z,14.80
2018-12-07T14:42:43.523Z,14.74
2018-12-07T14:45:12.145Z,14.71
2018-12-07T14:47:40.553Z,14.70
2018-12-07T14:50:09.236Z,14.71
2018-12-07T14:52:37.533Z,14.70
2018-12-07T14:55:06.586Z,14.71
2018-12-07T14:57:34.885Z,14.70
2018-12-07T15:00:03.597Z,14.71
2018-12-07T15:02:32.231Z,14.70
2018-12-07T15:05:00.540Z,14.67
2018-12-07T15:07:28.715Z,14.69
2018-12-07T15:09:56.908Z,14.65
2018-12-07T15:12:25.241Z,14.68
2018-12-07T15:14:53.865Z,14.67
2018-12-07T15:17:22.040Z,14.64
2018-12-07T15:19:50.496Z,14.63
2018-12-07T15:22:18.920Z,14.59
2018-12-07T15:24:47.278Z,14.56
2018-12-07T15:27:15.656Z,14.56
2018-12-07T15:29:44.282Z,14.54
2018-12-07T15:32:12.669Z,14.52
2018-12-07T15:34:41.620Z,14.55
2018-12-07T15:37:10.109Z,14.48
2018-12-07T15:39:38.622Z,14.42
2018-12-07T15:42:07.120Z,14.37
2018-12-07T15:44:35.756Z,14.36
2018-12-07T15:47:04.301Z,14.36
2018-12-07T15:49:32.517Z,14.35
2018-12-07T15:52:01.215Z,14.33
2018-12-07T15:54:29.593Z,14.36
2018-12-07T15:56:58.189Z,14.37
2018-12-07T15:59:34.249Z,14.38
2018-12-07T16:01:56.926Z,14.41
2018-12-07T16:04:25.117Z,14.40
2018-12-07T16:06:53.656Z,14.43
2018-12-07T16:09:22.008Z,14.40
2018-12-07T16:11:50.411Z,14.41
2018-12-07T16:14:18.719Z,14.42
2018-12-07T16:16:47.143Z,14.41
2018-12-07T16:19:15.656Z,14.45
2018-12-07T16:21:44.136Z,14.41
2018-12-07T16:24:12.397Z,14.40
2018-12-07T16:26:40.552Z,14.41
2018-12-07T16:29:08.816Z,14.38
2018-12-07T16:31:37.260Z,14.39
2018-12-07T16:34:05.715Z,14.39
2018-12-07T16:36:34.181Z,14.39
2018-12-07T16:39:02.413Z,14.42
2018-12-07T16:41:30.680Z,14.38
2018-12-07T16:43:59.150Z,14.38
2018-12-07T16:46:27.690Z,14.40
2018-12-07T16:48:56.013Z,14.37
2018-12-07T16:51:24.774Z,14.35
2018-12-07T16:53:53.148Z,14.33
2018-12-07T16:56:21.743Z,14.33
2018-12-07T16:58:50.153Z,14.32
2018-12-07T17:01:18.596Z,14.34
2018-12-07T17:03:46.903Z,14.33
2018-12-07T17:06:15.282Z,14.36
2018-12-07T17:08:44.788Z,14.40
2018-12-07T17:11:13.541Z,14.40
2018-12-07T17:13:41.941Z,14.44
2018-12-07T17:16:10.635Z,14.46
2018-12-07T17:18:38.841Z,14.46
2018-12-07T17:21:07.334Z,14.51
2018-12-07T17:23:35.839Z,14.44
2018-12-07T17:26:04.240Z,14.38
2018-12-07T17:28:32.510Z,14.36
2018-12-07T17:31:00.972Z,14.34
2018-12-07T17:33:29.472Z,14.30
2018-12-07T17:35:57.768Z,14.27
2018-12-07T17:38:26.218Z,14.25
2018-12-07T17:40:54.647Z,14.28
2018-12-07T17:43:23.132Z,14.26
2018-12-07T17:45:51.648Z,14.27
2018-12-07T17:48:20.117Z,14.28
2018-12-07T17:50:48.624Z,14.30
2018-12-07T17:53:17.193Z,14.29
2018-12-07T17:55:45.605Z,14.31
2018-12-07T17:58:14.142Z,14.29
2018-12-07T18:00:42.620Z,14.27
2018-12-07T18:03:10.926Z,14.26
2018-12-07T18:05:39.254Z,14.22
2018-12-07T18:08:07.773Z,14.21
2018-12-07T18:10:36.508Z,14.23
2018-12-07T18:13:04.902Z,14.21
2018-12-07T18:15:34.172Z,14.21
2018-12-07T18:18:02.397Z,14.21
2018-12-07T18:20:30.875Z,14.19
2018-12-07T18:22:59.200Z,14.20
2018-12-07T18:25:27.673Z,14.19
2018-12-07T18:27:56.162Z,14.16
2018-12-07T18:30:24.616Z,14.13
2018-12-07T18:32:52.867Z,14.11
2018-12-07T18:35:21.314Z,14.07
2018-12-07T18:37:49.503Z,14.03
2018-12-07T18:40:17.803Z,14.03
2018-12-07T18:42:46.079Z,14.03
2018-12-07T18:45:15.473Z,14.03
2018-12-07T18:47:43.851Z,14.04
2018-12-07T18:50:12.199Z,14.03
2018-12-07T18:52:40.493Z,14.05
2018-12-07T18:55:10.306Z,14.02
2018-12-07T18:57:38.875Z,14.02
2018-12-07T19:00:08.527Z,14.02
2018-12-07T19:02:37.102Z,13.98
2018-12-07T19:05:06.310Z,13.98
2018-12-07T19:07:34.607Z,13.98
2018-12-07T19:10:03.156Z,13.98
2018-12-07T19:12:31.511Z,13.98
2018-12-07T19:14:59.745Z,13.96
2018-12-07T19:17:28.265Z,13.95
2018-12-07T19:19:56.577Z,13.96
2018-12-07T19:22:24.786Z,13.96
2018-12-07T19:24:53.273Z,13.97
2018-12-07T19:27:21.617Z,14.00
2018-12-07T19:29:50.133Z,13.98
2018-12-07T19:32:18.771Z,13.99
2018-12-07T19:34:48.139Z,14.01
2018-12-07T19:37:16.548Z,13.98
2018-12-07T19:39:45.266Z,13.97
2018-12-07T19:42:13.727Z,13.93
2018-12-07T19:44:42.449Z,13.96
2018-12-07T19:47:10.828Z,13.91
2018-12-07T19:49:39.416Z,13.89
2018-12-07T19:52:08.117Z,13.85
2018-12-07T19:54:36.610Z,13.83
2018-12-07T19:57:05.162Z,13.79
2018-12-07T19:59:33.514Z,13.79
2018-12-07T20:02:01.764Z,13.81
2018-12-07T20:04:30.191Z,13.84
2018-12-07T20:06:58.661Z,13.87
2018-12-07T20:09:26.928Z,13.89
2018-12-07T20:11:55.216Z,13.91
2018-12-07T20:14:23.950Z,13.94
2018-12-07T20:16:52.157Z,13.97
2018-12-07T20:19:20.379Z,14.01
2018-12-07T20:21:48.684Z,14.02
2018-12-07T20:24:17.047Z,13.99
2018-12-07T20:26:45.333Z,13.99
2018-12-07T20:29:13.570Z,14.08
2018-12-07T20:31:42.466Z,13.97
2018-12-07T20:34:11.222Z,13.91
2018-12-07T20:36:39.728Z,13.94
2018-12-07T20:39:08.385Z,13.86
2018-12-07T20:41:36.689Z,13.80
2018-12-07T20:44:05.303Z,13.68
2018-12-07T20:46:33.589Z,13.67
2018-12-07T20:49:02.029Z,13.56
2018-12-07T20:51:30.435Z,13.45
2018-12-07T20:53:58.680Z,13.42
2018-12-07T20:56:27.288Z,13.40
2018-12-07T20:58:56.037Z,13.44
2018-12-07T21:01:24.507Z,13.38
2018-12-07T21:04:15.183Z,13.35
2018-12-07T21:07:58.323Z,13.27
2018-12-07T21:10:48.672Z,13.04
2018-12-07T21:14:28.905Z,13.06
2018-12-07T21:17:07.755Z,12.95
2018-12-07T21:19:38.079Z,13.03
2018-12-07T21:22:06.753Z,12.99
2018-12-07T21:24:35.258Z,13.13
2018-12-07T21:27:03.915Z,13.20
2018-12-07T21:29:32.388Z,13.22
2018-12-07T21:32:02.018Z,13.23
2018-12-07T21:34:41.842Z,13.29
2018-12-07T21:37:10.466Z,13.24
2018-12-07T21:39:46.065Z,13.22
2018-12-07T21:42:15.131Z,13.19
2018-12-07T21:44:43.518Z,13.20
2018-12-07T21:47:11.856Z,13.22
2018-12-07T21:49:51.673Z,13.23
2018-12-07T21:52:28.536Z,13.20
2018-12-07T21:54:56.999Z,13.18
2018-12-07T21:57:25.349Z,13.20
2018-12-07T21:59:53.924Z,13.17
2018-12-07T22:02:22.229Z,13.19
2018-12-07T22:04:50.540Z,13.15
2018-12-07T22:07:19.000Z,13.17
2018-12-07T22:09:47.487Z,13.13
2018-12-07T22:12:15.722Z,13.13
2018-12-07T22:14:44.078Z,13.10
2018-12-07T22:17:12.294Z,13.06
2018-12-07T22:19:40.544Z,13.04
2018-12-07T22:22:08.886Z,12.94
2018-12-07T22:24:37.272Z,12.89
2018-12-07T22:27:05.468Z,12.93
2018-12-07T22:29:33.937Z,12.84
2018-12-07T22:32:02.377Z,12.79
2018-12-07T22:34:30.911Z,12.76
2018-12-07T22:36:59.490Z,12.73
2018-12-07T22:39:28.152Z,12.76
2018-12-07T22:41:56.539Z,12.71
2018-12-07T22:44:24.847Z,12.72
2018-12-07T22:46:53.146Z,12.75
2018-12-07T22:49:21.310Z,12.73
2018-12-07T22:51:49.588Z,12.73
2018-12-07T22:54:17.754Z,12.73
2018-12-07T22:56:45.984Z,12.68
2018-12-07T22:59:14.221Z,12.61
2018-12-07T23:01:42.501Z,12.53
2018-12-07T23:04:10.861Z,12.46
2018-12-07T23:06:39.048Z,12.43
2018-12-07T23:09:08.169Z,12.38
2018-12-07T23:11:36.321Z,12.36
2018-12-07T23:14:04.701Z,12.37
2018-12-07T23:16:33.179Z,12.37
2018-12-07T23:19:01.420Z,12.34
2018-12-07T23:21:29.632Z,12.32
2018-12-07T23:23:57.772Z,12.35
2018-12-07T23:26:25.982Z,12.24
2018-12-07T23:28:54.252Z,12.21
2018-12-07T23:31:22.544Z,12.17
2018-12-07T23:33:51.138Z,12.15
2018-12-07T23:36:19.417Z,12.12
2018-12-07T23:38:47.565Z,12.08
2018-12-07T23:41:15.796Z,12.06
2018-12-07T23:43:43.953Z,12.06
2018-12-07T23:46:12.325Z,12.00
2018-12-07T23:48:40.491Z,12.01
2018-12-07T23:51:08.857Z,11.94
2018-12-07T23:53:37.013Z,11.93
2018-12-07T23:56:05.324Z,11.87
2018-12-07T23:58:33.480Z,11.82
